Time;durP1;ratioP1;P1;durP2;ratioP2;P2;SDS_P1;SDS_P2;PMS_P1;PMS_P2;Temp;Humidity;BMP_temperature;BMP_pressure;BME280_temperature;BME280_humidity;BME280_pressure;Samples;Min_cycle;Max_cycle;Signal;HPM_P1;HPM_P2
2020/12/07 00:00:45;;;;;;;3.65;2.83;;;231.10;1868.80;;;;;;5020810;28;20434;-78
2020/12/07 00:03:11;;;;;;;3.60;2.95;;;231.20;1868.80;;;;;;5019922;28;20477;-80
2020/12/07 00:05:37;;;;;;;6.65;3.17;;;231.30;1868.80;;;;;;5020768;28;20054;-78
2020/12/07 00:08:04;;;;;;;3.60;2.50;;;231.30;1868.80;;;;;;5020836;28;20042;-79
2020/12/07 00:11:10;;;;;;;6.50;3.15;;;231.30;1843.20;;;;;;5020872;28;20026;-78
2020/12/07 00:13:36;;;;;;;3.15;2.67;;;231.30;1843.20;;;;;;5020491;28;20041;-79
2020/12/07 00:16:01;;;;;;;2.47;2.33;;;256.00;1843.20;;;;;;5020683;28;20030;-79
2020/12/07 00:18:27;;;;;;;2.58;2.38;;;256.00;1843.20;;;;;;5020323;28;20037;-78
2020/12/07 00:20:53;;;;;;;6.85;2.85;;;231.30;1843.20;;;;;;5020728;28;20026;-79
2020/12/07 00:23:18;;;;;;;2.85;2.42;;;231.30;1843.20;;;;;;5020409;28;20042;-78
2020/12/07 00:25:45;;;;;;;5.82;2.85;;;231.20;1843.20;;;;;;5020297;28;20057;-77
2020/12/07 00:28:11;;;;;;;2.90;2.40;;;231.20;1843.20;;;;;;5019285;28;20037;-79
2020/12/07 00:30:37;;;;;;;4.00;2.25;;;231.20;1843.20;;;;;;5019530;28;20033;-77
2020/12/07 00:33:03;;;;;;;3.05;2.33;;;231.20;1843.20;;;;;;5020519;28;20030;-79
2020/12/07 00:35:29;;;;;;;2.53;2.15;;;231.20;1843.20;;;;;;5019201;28;20053;-77
2020/12/07 00:37:54;;;;;;;3.17;1.98;;;231.30;1843.20;;;;;;5020108;28;20077;-78
2020/12/07 00:40:20;;;;;;;1.20;1.20;;;231.30;1817.60;;;;;;5019014;28;20305;-79
2020/12/07 00:42:46;;;;;;;3.35;1.30;;;231.20;1843.20;;;;;;5019964;28;20025;-78
2020/12/07 00:45:12;;;;;;;1.50;1.40;;;231.20;1843.20;;;;;;5020043;28;20358;-78
2020/12/07 00:47:37;;;;;;;1.35;1.30;;;231.20;1817.60;;;;;;5019926;28;20034;-79
2020/12/07 00:50:04;;;;;;;1.88;1.35;;;231.30;1817.60;;;;;;5019718;28;20157;-78
2020/12/07 00:52:29;;;;;;;64.45;5.55;;;231.30;1817.60;;;;;;5019879;28;20116;-80
2020/12/07 00:54:55;;;;;;;1.52;1.45;;;231.30;1817.60;;;;;;5019906;28;20057;-79
2020/12/07 00:57:21;;;;;;;1.60;1.23;;;231.30;1817.60;;;;;;5019702;28;20033;-78
2020/12/07 00:59:46;;;;;;;3.75;1.90;;;231.30;1817.60;;;;;;5033899;28;20033;-79
2020/12/07 01:02:12;;;;;;;2.35;2.13;;;231.30;1817.60;;;;;;5020007;28;20029;-78
2020/12/07 01:04:38;;;;;;;4.72;1.77;;;231.30;1817.60;;;;;;5019692;28;20315;-79
2020/12/07 01:07:03;;;;;;;1.67;1.58;;;231.30;1817.60;;;;;;5019715;28;20046;-78
2020/12/07 01:09:29;;;;;;;1.25;1.25;;;231.20;1817.60;;;;;;5019516;28;20026;-77
2020/12/07 01:11:59;;;;;;;2.17;1.98;;;231.30;1817.60;;;;;;5019836;28;20061;-80
2020/12/07 01:14:25;;;;;;;2.22;2.00;;;231.30;1817.60;;;;;;5019661;28;20026;-79
2020/12/07 01:16:51;;;;;;;6.65;1.92;;;231.30;1817.60;;;;;;5019647;28;20040;-79
2020/12/07 01:19:17;;;;;;;2.40;2.20;;;231.20;1817.60;;;;;;5019480;28;20040;-79
2020/12/07 01:21:43;;;;;;;8.88;1.90;;;231.30;1817.60;;;;;;5017909;28;20042;-78
2020/12/07 01:24:09;;;;;;;2.65;2.45;;;231.20;1817.60;;;;;;5051599;28;20328;-79
2020/12/07 01:26:35;;;;;;;3.03;1.92;;;231.30;1817.60;;;;;;5018828;28;20018;-78
2020/12/07 01:29:05;;;;;;;2.55;2.33;;;231.30;1817.60;;;;;;5018994;28;20050;-80
2020/12/07 01:31:30;;;;;;;4.22;1.83;;;231.30;1817.60;;;;;;5019232;28;20030;-78
2020/12/07 01:33:56;;;;;;;4.35;1.88;;;231.20;1817.60;;;;;;5019445;28;20021;-78
2020/12/07 01:36:22;;;;;;;3.22;1.80;;;231.20;1817.60;;;;;;5019991;28;20430;-77
2020/12/07 01:38:48;;;;;;;2.53;2.33;;;231.20;1817.60;;;;;;5059817;28;20439;-79
2020/12/07 01:41:14;;;;;;;3.88;2.00;;;231.20;1843.20;;;;;;5023443;28;20021;-78
2020/12/07 01:43:41;;;;;;;2.35;1.65;;;231.20;1843.20;;;;;;5018510;28;20028;-79
2020/12/07 01:46:07;;;;;;;2.45;2.28;;;231.10;1817.60;;;;;;5018944;28;20033;-79
2020/12/07 01:48:33;;;;;;;1.95;1.75;;;231.10;1817.60;;;;;;5018695;28;20026;-78
2020/12/07 01:50:59;;;;;;;2.10;2.00;;;231.10;1817.60;;;;;;5018908;28;20026;-79
2020/12/07 01:53:25;;;;;;;2.22;1.73;;;231.20;1817.60;;;;;;5017755;28;20056;-79
2020/12/07 01:55:53;;;;;;;2.28;2.08;;;231.20;1817.60;;;;;;5019030;28;20018;-79
2020/12/07 01:58:19;;;;;;;2.88;2.17;;;231.20;1843.20;;;;;;5018547;28;20351;-78
2020/12/07 02:00:45;;;;;;;1.90;1.67;;;231.20;1817.60;;;;;;5017778;28;20033;-78
2020/12/07 02:03:11;;;;;;;2.25;1.88;;;231.20;1817.60;;;;;;5018745;28;20110;-79
2020/12/07 02:05:41;;;;;;;2.08;1.88;;;231.10;1817.60;;;;;;5018474;28;20022;-80
2020/12/07 02:08:13;;;;;;;3.10;2.33;;;231.20;1817.60;;;;;;5018308;28;20026;-79
2020/12/07 02:10:39;;;;;;;2.83;1.75;;;231.10;1817.60;;;;;;5017848;28;20138;-80
2020/12/07 02:13:05;;;;;;;2.22;2.03;;;231.10;1817.60;;;;;;5018016;28;20034;-80
2020/12/07 02:15:31;;;;;;;2.85;2.28;;;231.10;1817.60;;;;;;5018557;28;20034;-78
2020/12/07 02:17:57;;;;;;;3.28;2.47;;;231.10;1843.20;;;;;;5018387;28;20030;-78
2020/12/07 02:20:23;;;;;;;5.00;2.03;;;231.00;1843.20;;;;;;5018248;28;20157;-79
2020/12/07 02:22:49;;;;;;;2.40;2.22;;;231.00;1843.20;;;;;;5017992;28;20050;-80
2020/12/07 02:25:14;;;;;;;2.28;2.08;;;231.00;1843.20;;;;;;5017169;28;20029;-79
2020/12/07 02:27:40;;;;;;;2.75;1.88;;;231.00;1843.20;;;;;;5018120;28;20348;-79
2020/12/07 02:30:06;;;;;;;2.78;2.45;;;231.00;1843.20;;;;;;5018040;28;20033;-78
2020/12/07 02:32:31;;;;;;;2.28;2.08;;;231.00;1843.20;;;;;;5049996;28;20049;-80
2020/12/07 02:34:57;;;;;;;3.13;1.60;;;231.00;1817.60;;;;;;5018115;28;20375;-77
2020/12/07 02:37:23;;;;;;;1.80;1.70;;;231.00;1843.20;;;;;;5018009;28;20026;-78
2020/12/07 02:39:49;;;;;;;6.07;2.30;;;231.10;1843.20;;;;;;5016828;28;20416;-79
2020/12/07 02:42:15;;;;;;;3.60;2.60;;;231.00;1817.60;;;;;;5017718;28;20026;-79
2020/12/07 02:44:40;;;;;;;3.25;2.40;;;231.10;1817.60;;;;;;5017841;28;20033;-79
2020/12/07 02:47:06;;;;;;;2.45;1.65;;;231.10;1817.60;;;;;;5017846;28;20026;-78
2020/12/07 02:49:32;;;;;;;2.45;1.98;;;231.00;1817.60;;;;;;5017789;28;20061;-79
2020/12/07 02:51:57;;;;;;;2.70;2.00;;;231.10;1817.60;;;;;;5017796;28;20104;-78
2020/12/07 02:54:23;;;;;;;2.00;1.90;;;231.00;1843.20;;;;;;5018030;28;20025;-78
2020/12/07 02:56:49;;;;;;;5.60;2.60;;;231.00;1843.20;;;;;;5017728;28;20125;-78
2020/12/07 02:59:14;;;;;;;2.00;1.75;;;231.10;1817.60;;;;;;5017732;28;20029;-78
2020/12/07 03:01:40;;;;;;;2.97;2.22;;;231.00;1843.20;;;;;;5017504;28;20053;-79
2020/12/07 03:04:06;;;;;;;2.72;2.42;;;231.00;1817.60;;;;;;5017278;28;20030;-79
2020/12/07 03:06:32;;;;;;;5.30;2.40;;;231.00;1843.20;;;;;;5016412;28;20022;-79
2020/12/07 03:08:57;;;;;;;2.05;1.90;;;230.90;1843.20;;;;;;5017635;28;20030;-79
2020/12/07 03:11:24;;;;;;;2.35;2.13;;;230.90;1843.20;;;;;;5032887;28;20539;-78
2020/12/07 03:13:50;;;;;;;3.65;2.42;;;230.90;1843.20;;;;;;5017309;28;20412;-78
2020/12/07 03:16:16;;;;;;;2.50;2.25;;;230.90;1843.20;;;;;;5016388;28;20347;-78
2020/12/07 03:18:42;;;;;;;3.60;2.53;;;230.90;1843.20;;;;;;5016981;28;20034;-77
2020/12/07 03:21:08;;;;;;;2.40;2.20;;;230.90;1843.20;;;;;;5048620;28;20033;-78
2020/12/07 03:23:34;;;;;;;6.47;2.67;;;230.90;1843.20;;;;;;5016796;28;20042;-78
2020/12/07 03:25:59;;;;;;;4.95;2.33;;;231.00;1843.20;;;;;;5017039;28;20324;-78
2020/12/07 03:28:25;;;;;;;3.10;2.40;;;231.00;1817.60;;;;;;5017465;28;20064;-79
2020/12/07 03:30:51;;;;;;;2.92;2.63;;;231.00;1817.60;;;;;;5017139;28;20030;-79
2020/12/07 03:33:16;;;;;;;4.03;2.72;;;231.00;1817.60;;;;;;5016188;28;20117;-78
2020/12/07 03:35:43;;;;;;;2.80;2.60;;;231.00;1817.60;;;;;;5016087;28;20416;-78
2020/12/07 03:38:09;;;;;;;5.75;3.17;;;231.00;1817.60;;;;;;5016996;28;20112;-78
2020/12/07 03:40:36;;;;;;;9.10;3.75;;;231.00;1817.60;;;;;;5016793;28;20100;-78
2020/12/07 03:43:02;;;;;;;5.07;2.80;;;231.00;1817.60;;;;;;5016643;28;20021;-80
2020/12/07 03:45:28;;;;;;;7.55;3.15;;;230.90;1817.60;;;;;;5017241;28;20072;-79
2020/12/07 03:47:54;;;;;;;3.42;2.88;;;230.80;1817.60;;;;;;5016902;28;20034;-79
2020/12/07 03:50:20;;;;;;;8.77;3.33;;;230.90;1817.60;;;;;;5016942;28;20408;-79
2020/12/07 03:52:45;;;;;;;6.57;3.72;;;230.90;1817.60;;;;;;5016844;28;20026;-79
2020/12/07 03:55:11;;;;;;;6.80;3.35;;;230.90;1817.60;;;;;;5016877;28;20033;-80
2020/12/07 03:57:37;;;;;;;3.75;3.15;;;230.80;1817.60;;;;;;5017010;28;20034;-79
2020/12/07 04:00:06;;;;;;;9.75;3.20;;;230.80;1817.60;;;;;;5016861;28;20029;-78
2020/12/07 04:02:32;;;;;;;7.05;3.50;;;230.80;1817.60;;;;;;5016649;28;20033;-78
2020/12/07 04:05:16;;;;;;;8.10;3.20;;;230.80;1843.20;;;;;;5016921;28;20060;-79
2020/12/07 04:07:42;;;;;;;6.18;3.53;;;230.80;1843.20;;;;;;5016643;28;20412;-77
2020/12/07 04:10:08;;;;;;;7.18;3.15;;;230.70;1843.20;;;;;;5015817;28;20033;-78
2020/12/07 04:12:33;;;;;;;3.85;2.95;;;230.70;1843.20;;;;;;5015509;28;20055;-79
2020/12/07 04:14:59;;;;;;;5.38;2.78;;;230.70;1843.20;;;;;;5016621;28;20064;-78
2020/12/07 04:17:25;;;;;;;5.57;3.30;;;230.70;1843.20;;;;;;5031958;28;20093;-79
2020/12/07 04:19:51;;;;;;;5.22;2.92;;;230.60;1843.20;;;;;;5016725;28;20033;-78
2020/12/07 04:22:16;;;;;;;6.80;3.28;;;230.60;1868.80;;;;;;5016521;28;20051;-78
2020/12/07 04:24:42;;;;;;;3.88;3.00;;;230.70;1843.20;;;;;;5016720;28;20409;-78
2020/12/07 04:27:07;;;;;;;5.80;3.20;;;230.80;1843.20;;;;;;5016444;28;20029;-77
2020/12/07 04:29:33;;;;;;;5.20;2.85;;;230.70;1868.80;;;;;;5015537;28;20041;-79
2020/12/07 04:31:59;;;;;;;4.70;3.75;;;230.80;1843.20;;;;;;5016346;28;20025;-79
2020/12/07 04:34:25;;;;;;;8.20;5.32;;;230.70;1868.80;;;;;;5018642;28;20029;-79
2020/12/07 04:36:54;;;;;;;11.65;4.38;;;230.70;1868.80;;;;;;5020187;28;20320;-79
2020/12/07 04:39:20;;;;;;;7.90;5.03;;;230.70;1868.80;;;;;;5020568;28;20033;-79
2020/12/07 04:41:46;;;;;;;7.53;4.28;;;230.70;1868.80;;;;;;5020047;28;20026;-79
2020/12/07 04:44:11;;;;;;;6.47;4.72;;;230.70;1843.20;;;;;;5019956;28;20351;-79
2020/12/07 04:46:37;;;;;;;7.55;3.95;;;230.70;1868.80;;;;;;5019731;28;20036;-79
2020/12/07 04:49:03;;;;;;;7.55;5.13;;;230.60;1868.80;;;;;;5020084;28;20072;-78
2020/12/07 04:51:31;;;;;;;9.32;5.35;;;230.60;1868.80;;;;;;5018937;28;20450;-79
2020/12/07 04:53:59;;;;;;;8.98;4.80;;;230.60;1868.80;;;;;;5019975;28;20041;-79
2020/12/07 04:56:26;;;;;;;8.60;4.65;;;230.60;1868.80;;;;;;5019915;28;20057;-78
2020/12/07 04:58:53;;;;;;;5.30;4.47;;;230.60;1868.80;;;;;;5021295;28;20030;-81
2020/12/07 05:01:19;;;;;;;10.60;4.95;;;230.50;1868.80;;;;;;5024010;28;20351;-79
2020/12/07 05:03:45;;;;;;;14.43;4.30;;;230.60;1868.80;;;;;;5021018;28;20026;-78
2020/12/07 05:06:14;;;;;;;8.88;4.57;;;230.60;1868.80;;;;;;5051864;28;20029;-78
2020/12/07 05:08:39;;;;;;;6.82;3.63;;;230.60;1868.80;;;;;;5020024;28;20411;-78
2020/12/07 05:11:05;;;;;;;7.03;4.20;;;230.50;1894.40;;;;;;5019609;28;20054;-78
2020/12/07 05:13:52;;;;;;;12.57;3.80;;;230.60;1894.40;;;;;;5018538;28;20026;-78
2020/12/07 05:16:18;;;;;;;8.57;4.95;;;230.50;1894.40;;;;;;5019414;28;20435;-78
2020/12/07 05:18:44;;;;;;;5.75;4.95;;;230.50;1894.40;;;;;;5019669;28;20034;-78
2020/12/07 05:21:10;;;;;;;6.25;4.80;;;230.50;1894.40;;;;;;5019451;28;20316;-80
2020/12/07 05:23:41;;;;;;;7.72;4.30;;;230.50;1894.40;;;;;;5019042;28;20065;-78
2020/12/07 05:26:09;;;;;;;13.93;5.00;;;230.50;1894.40;;;;;;5019627;28;20021;-78
2020/12/07 05:28:39;;;;;;;5.18;4.13;;;230.50;1894.40;;;;;;5019123;28;20076;-78
2020/12/07 05:31:05;;;;;;;6.28;4.40;;;230.50;1894.40;;;;;;5019142;28;20073;-78
2020/12/07 05:33:31;;;;;;;14.02;4.43;;;230.50;1894.40;;;;;;5019420;28;20030;-78
2020/12/07 05:35:57;;;;;;;7.45;4.75;;;230.50;1894.40;;;;;;5019189;28;20089;-78
2020/12/07 05:38:33;;;;;;;10.10;6.10;;;230.50;1894.40;;;;;;5019651;28;20026;-80
2020/12/07 05:41:05;;;;;;;7.95;5.00;;;230.50;1894.40;;;;;;5019288;28;20101;-78
2020/12/07 05:43:32;;;;;;;8.60;4.93;;;230.60;1868.80;;;;;;5020482;28;20030;-78
2020/12/07 05:45:58;;;;;;;10.07;5.72;;;230.60;1894.40;;;;;;5019363;28;20018;-80
2020/12/07 05:48:39;;;;;;;9.82;6.03;;;230.60;1868.80;;;;;;5019020;28;20041;-78
2020/12/07 05:51:06;;;;;;;5.15;4.65;;;230.60;1868.80;;;;;;5018967;28;20030;-78
2020/12/07 05:53:36;;;;;;;5.80;4.40;;;230.70;1868.80;;;;;;5018824;28;20450;-78
2020/12/07 05:56:04;;;;;;;10.95;6.55;;;230.60;1868.80;;;;;;5017696;28;20420;-78
2020/12/07 05:58:35;;;;;;;12.30;6.55;;;230.50;1894.40;;;;;;5018975;28;20057;-79
2020/12/07 06:01:03;;;;;;;8.23;4.75;;;230.60;1868.80;;;;;;5018887;28;20049;-78
2020/12/07 06:03:30;;;;;;;11.15;4.90;;;230.50;1868.80;;;;;;5018352;28;20458;-78
2020/12/07 06:05:59;;;;;;;7.80;5.20;;;230.50;1868.80;;;;;;5018607;28;20026;-78
2020/12/07 06:08:31;;;;;;;8.07;4.55;;;230.50;1894.40;;;;;;5018429;28;20427;-78
2020/12/07 06:11:25;;;;;;;5.57;3.95;;;230.50;1868.80;;;;;;5018589;28;20037;-79
2020/12/07 06:13:52;;;;;;;11.20;4.45;;;230.60;1868.80;;;;;;5017370;28;20438;-80
2020/12/07 06:16:17;;;;;;;16.73;10.25;;;230.50;1868.80;;;;;;5018819;28;20026;-79
2020/12/07 06:18:43;;;;;;;9.10;5.45;;;230.60;1868.80;;;;;;5018027;28;20427;-79
2020/12/07 06:21:19;;;;;;;4.28;3.88;;;230.60;1868.80;;;;;;5018166;28;20088;-78
2020/12/07 06:23:47;;;;;;;5.20;4.07;;;230.60;1868.80;;;;;;5017917;28;20092;-79
2020/12/07 06:26:15;;;;;;;6.07;4.07;;;230.60;1868.80;;;;;;5018240;28;20301;-79
2020/12/07 06:28:43;;;;;;;8.15;3.40;;;230.60;1843.20;;;;;;5017025;28;20332;-79
2020/12/07 06:31:18;;;;;;;5.53;3.88;;;230.60;1868.80;;;;;;5016757;28;20033;-79
2020/12/07 06:33:50;;;;;;;5.13;4.30;;;230.60;1843.20;;;;;;5016942;28;20121;-78
2020/12/07 06:36:26;;;;;;;3.97;3.42;;;230.50;1868.80;;;;;;5017909;28;20105;-78
2020/12/07 06:38:55;;;;;;;9.38;5.40;;;230.60;1868.80;;;;;;5033319;28;20029;-79
2020/12/07 06:41:58;;;;;;;6.95;5.30;;;230.60;1868.80;;;;;;5017945;28;20040;-80
2020/12/07 06:44:24;;;;;;;4.00;3.25;;;230.60;1843.20;;;;;;5017804;28;20025;-78
2020/12/07 06:47:01;;;;;;;3.22;2.83;;;230.60;1843.20;;;;;;5017734;28;20030;-79
2020/12/07 06:49:38;;;;;;;6.35;3.33;;;230.60;1843.20;;;;;;5017704;28;20026;-78
2020/12/07 06:52:10;;;;;;;7.35;2.72;;;230.60;1843.20;;;;;;5023307;28;20079;-77
2020/12/07 06:57:28;;;;;;;9.73;5.72;;;230.60;1843.20;;;;;;5037401;28;20037;-78
2020/12/07 07:00:00;;;;;;;4.15;3.55;;;230.60;1843.20;;;;;;5035913;28;20187;-79
2020/12/07 07:02:27;;;;;;;8.80;5.05;;;230.60;1843.20;;;;;;5037054;28;20018;-79
2020/12/07 07:04:55;;;;;;;16.60;9.07;;;230.70;1843.20;;;;;;5037090;28;20024;-78
2020/12/07 07:07:23;;;;;;;12.77;7.75;;;230.70;1843.20;;;;;;5037251;28;20323;-79
2020/12/07 07:09:49;;;;;;;24.50;13.85;;;230.70;1817.60;;;;;;5037451;28;20057;-77
2020/12/07 07:12:16;;;;;;;5.07;3.30;;;230.70;1817.60;;;;;;5036911;28;20040;-78
2020/12/07 07:14:42;;;;;;;2.45;2.25;;;230.70;1817.60;;;;;;5037155;28;20323;-78
2020/12/07 07:17:09;;;;;;;4.25;2.78;;;230.80;1817.60;;;;;;5037007;28;20053;-78
2020/12/07 07:19:35;;;;;;;5.03;2.83;;;230.80;1817.60;;;;;;5036942;28;20069;-80
2020/12/07 07:22:01;;;;;;;3.55;2.72;;;230.70;1817.60;;;;;;5035689;28;20041;-78
2020/12/07 07:30:04;;;;;;;4.43;2.30;;;230.90;1792.00;;;;;;5035423;28;20049;-80
2020/12/07 07:32:31;;;;;;;3.08;1.70;;;230.80;1792.00;;;;;;5034887;28;20041;-80
2020/12/07 07:34:56;;;;;;;2.58;2.22;;;230.80;1792.00;;;;;;5034877;28;20411;-79
2020/12/07 07:37:22;;;;;;;3.72;2.00;;;230.80;1792.00;;;;;;5034936;28;20026;-79
2020/12/07 07:40:01;;;;;;;2.38;2.17;;;230.80;1792.00;;;;;;5034855;28;20025;-79
2020/12/07 07:42:28;;;;;;;3.08;2.78;;;230.80;1792.00;;;;;;5034677;28;20026;-77
2020/12/07 07:44:55;;;;;;;2.92;2.70;;;230.80;1792.00;;;;;;5034611;28;20025;-79
2020/12/07 07:47:28;;;;;;;3.75;3.35;;;230.80;1766.40;;;;;;5023844;28;20033;-78
2020/12/07 08:17:46;;;;;;;3.28;1.77;;;230.90;1740.80;;;;;;5016251;28;20141;-75
2020/12/07 08:20:11;;;;;;;3.72;2.20;;;231.00;1740.80;;;;;;5017065;28;20026;-78
2020/12/07 08:22:37;;;;;;;2.65;1.73;;;231.00;1740.80;;;;;;5018225;28;20038;-80
2020/12/07 08:25:05;;;;;;;0.77;0.77;;;231.00;1740.80;;;;;;5017900;28;20041;-78
2020/12/07 08:27:37;;;;;;;2.53;1.23;;;231.00;1715.20;;;;;;5000327;28;20427;-78
2020/12/07 08:30:07;;;;;;;2.33;2.10;;;231.00;1740.80;;;;;;5016371;28;20030;-78
2020/12/07 08:32:33;;;;;;;3.30;1.35;;;231.00;1740.80;;;;;;5015782;28;20040;-76
2020/12/07 08:34:59;;;;;;;1.23;1.13;;;231.10;1715.20;;;;;;5016334;28;20160;-79
2020/12/07 08:37:25;;;;;;;1.77;1.67;;;231.00;1740.80;;;;;;5017017;28;20034;-79
2020/12/07 08:39:52;;;;;;;4.55;1.88;;;231.00;1715.20;;;;;;5016813;28;20446;-80
2020/12/07 08:42:19;;;;;;;3.08;1.33;;;231.00;1740.80;;;;;;5017847;28;20029;-79
2020/12/07 08:44:45;;;;;;;4.03;1.58;;;231.10;1740.80;;;;;;5001469;28;20034;-79
2020/12/07 08:47:11;;;;;;;2.83;2.08;;;231.10;1740.80;;;;;;5017358;28;20036;-80
2020/12/07 08:49:37;;;;;;;2.13;1.92;;;231.10;1766.40;;;;;;5018147;28;20105;-80
2020/12/07 08:52:03;;;;;;;4.65;1.90;;;231.10;1740.80;;;;;;5037200;28;20411;-80
2020/12/07 08:54:29;;;;;;;4.47;2.88;;;231.10;1740.80;;;;;;5039334;28;20049;-80
2020/12/07 08:56:56;;;;;;;7.40;2.85;;;231.10;1766.40;;;;;;5039312;28;20439;-78
2020/12/07 08:59:21;;;;;;;2.38;1.92;;;231.10;1766.40;;;;;;5039551;28;20314;-79
2020/12/07 09:01:47;;;;;;;1.30;1.27;;;231.10;1766.40;;;;;;5039114;28;20105;-80
2020/12/07 09:04:13;;;;;;;1.10;1.10;;;231.00;1766.40;;;;;;5038742;28;20026;-80
2020/12/07 09:06:40;;;;;;;2.15;1.27;;;231.10;1766.40;;;;;;5039379;28;20029;-81
2020/12/07 09:09:09;;;;;;;3.05;2.30;;;231.10;1740.80;;;;;;5039191;28;20033;-81
2020/12/07 09:11:35;;;;;;;4.35;3.00;;;231.10;1740.80;;;;;;5038418;28;20398;-78
2020/12/07 09:14:02;;;;;;;2.90;2.10;;;231.10;1740.80;;;;;;5038112;28;20049;-78
2020/12/07 09:16:28;;;;;;;8.98;3.92;;;231.10;1740.80;;;;;;5036369;28;20026;-76
2020/12/07 09:18:54;;;;;;;7.78;4.53;;;231.10;1740.80;;;;;;5036700;28;20052;-78
2020/12/07 09:21:20;;;;;;;10.45;5.95;;;231.10;1740.80;;;;;;5037354;28;20101;-79
2020/12/07 09:23:45;;;;;;;7.55;4.30;;;231.10;1740.80;;;;;;5037802;28;20319;-78
2020/12/07 09:26:11;;;;;;;15.65;8.07;;;231.10;1740.80;;;;;;5037974;28;20354;-78
2020/12/07 09:28:37;;;;;;;14.75;6.38;;;231.00;1766.40;;;;;;5037355;28;20022;-79
2020/12/07 09:31:06;;;;;;;6.70;4.30;;;231.00;1766.40;;;;;;5036785;28;20067;-78
2020/12/07 09:33:34;;;;;;;4.55;3.28;;;231.00;1792.00;;;;;;5037934;28;20336;-79
2020/12/07 09:35:59;;;;;;;5.90;4.07;;;231.00;1792.00;;;;;;5036435;28;20084;-79
2020/12/07 09:38:25;;;;;;;8.10;3.90;;;230.90;1792.00;;;;;;5036770;28;20403;-80
2020/12/07 09:40:51;;;;;;;10.40;5.03;;;230.90;1792.00;;;;;;5036753;28;20037;-79
2020/12/07 09:43:17;;;;;;;8.88;5.22;;;230.90;1792.00;;;;;;5037484;28;20052;-80
2020/12/07 09:45:42;;;;;;;5.68;3.30;;;230.90;1792.00;;;;;;5036772;28;20124;-79
2020/12/07 09:48:08;;;;;;;14.55;8.45;;;230.90;1817.60;;;;;;5036317;28;20450;-79
2020/12/07 09:50:34;;;;;;;4.00;3.60;;;230.90;1792.00;;;;;;5036557;28;20030;-78
2020/12/07 09:53:01;;;;;;;3.88;2.30;;;230.90;1792.00;;;;;;5036749;28;20026;-80
2020/12/07 09:55:26;;;;;;;2.83;2.10;;;230.90;1817.60;;;;;;5037095;28;20021;-78
2020/12/07 09:57:53;;;;;;;5.57;1.40;;;230.90;1792.00;;;;;;5036351;28;20143;-79
2020/12/07 10:00:19;;;;;;;1.70;1.60;;;230.90;1817.60;;;;;;5037022;28;20087;-79
2020/12/07 10:02:45;;;;;;;3.03;1.80;;;230.90;1817.60;;;;;;5037481;28;20475;-79
2020/12/07 10:05:11;;;;;;;1.17;1.08;;;230.90;1843.20;;;;;;5035936;28;20034;-79
2020/12/07 10:07:37;;;;;;;1.33;1.23;;;230.80;1843.20;;;;;;5037145;28;20316;-79
2020/12/07 10:10:03;;;;;;;6.53;1.90;;;230.90;1817.60;;;;;;5038107;28;20053;-77
2020/12/07 10:12:30;;;;;;;3.15;1.52;;;230.90;1843.20;;;;;;5037109;28;20488;-78
2020/12/07 10:14:56;;;;;;;1.55;1.45;;;230.90;1843.20;;;;;;5036504;28;20441;-78
2020/12/07 10:17:22;;;;;;;2.60;2.40;;;230.90;1817.60;;;;;;5037615;28;20034;-80
2020/12/07 10:19:48;;;;;;;3.25;2.22;;;230.90;1817.60;;;;;;5038135;28;20034;-78
2020/12/07 10:22:13;;;;;;;11.95;3.05;;;230.90;1843.20;;;;;;5037935;28;20038;-77
2020/12/07 10:24:39;;;;;;;15.52;3.95;;;230.90;1817.60;;;;;;5037853;28;20426;-80
2020/12/07 10:27:05;;;;;;;10.55;3.40;;;230.80;1817.60;;;;;;5037608;28;20026;-79
2020/12/07 10:29:31;;;;;;;7.40;3.22;;;230.80;1817.60;;;;;;5036153;28;20035;-81
2020/12/07 10:31:57;;;;;;;7.47;4.38;;;230.80;1817.60;;;;;;5037732;28;20288;-79
2020/12/07 10:34:25;;;;;;;8.95;5.28;;;230.80;1843.20;;;;;;5037769;28;20021;-79
2020/12/07 10:36:51;;;;;;;7.57;3.17;;;230.80;1843.20;;;;;;5037840;28;20053;-78
2020/12/07 10:39:18;;;;;;;18.48;10.00;;;230.80;1843.20;;;;;;5037539;28;20056;-77
2020/12/07 10:41:43;;;;;;;16.90;8.52;;;230.80;1843.20;;;;;;5037368;28;20029;-77
2020/12/07 10:44:09;;;;;;;17.55;9.10;;;230.80;1843.20;;;;;;5037058;28;20063;-78
2020/12/07 10:46:38;;;;;;;12.98;5.78;;;230.80;1843.20;;;;;;5037308;28;20029;-77
2020/12/07 10:49:07;;;;;;;4.03;2.20;;;230.80;1843.20;;;;;;5037106;28;20112;-77
2020/12/07 10:51:33;;;;;;;12.68;3.95;;;230.80;1843.20;;;;;;5037387;28;20026;-79
2020/12/07 10:54:00;;;;;;;5.85;2.47;;;230.80;1868.80;;;;;;5036913;28;20060;-77
2020/12/07 10:56:27;;;;;;;14.07;12.18;;;230.80;1843.20;;;;;;5037468;28;20396;-76
2020/12/07 10:58:52;;;;;;;19.25;17.27;;;230.80;1843.20;;;;;;5036571;28;20056;-77
2020/12/07 11:01:18;;;;;;;6.10;3.85;;;230.90;1843.20;;;;;;5035639;28;20053;-78
2020/12/07 11:03:46;;;;;;;10.38;5.18;;;230.90;1843.20;;;;;;5036521;28;20017;-79
2020/12/07 11:06:27;;;;;;;4.25;3.50;;;230.80;1868.80;;;;;;5036552;28;20025;-78
2020/12/07 11:08:56;;;;;;;5.15;3.70;;;230.80;1868.80;;;;;;5034937;28;20053;-77
2020/12/07 11:11:23;;;;;;;2.28;2.08;;;230.80;1843.20;;;;;;5035165;28;20410;-78
2020/12/07 11:13:49;;;;;;;3.60;2.30;;;230.80;1868.80;;;;;;5036398;28;20028;-77
2020/12/07 11:16:15;;;;;;;4.55;2.25;;;230.70;1894.40;;;;;;5035980;28;20025;-77
2020/12/07 11:18:42;;;;;;;1.80;1.70;;;230.70;1894.40;;;;;;5036643;28;20323;-78
2020/12/07 11:21:12;;;;;;;3.60;1.88;;;230.70;1894.40;;;;;;5036971;28;20042;-79
2020/12/07 11:23:40;;;;;;;3.97;1.73;;;230.70;1894.40;;;;;;5036701;28;20057;-80
2020/12/07 11:26:06;;;;;;;2.20;1.80;;;230.70;1894.40;;;;;;5036730;28;20415;-81
2020/12/07 11:28:32;;;;;;;3.40;1.67;;;230.70;1894.40;;;;;;5036190;28;20060;-79
2020/12/07 11:30:58;;;;;;;6.35;2.53;;;230.70;1894.40;;;;;;5035601;28;20029;-78
2020/12/07 11:33:24;;;;;;;3.20;2.83;;;230.70;1920.00;;;;;;5037055;28;20029;-75
2020/12/07 11:35:49;;;;;;;5.57;3.28;;;230.70;1920.00;;;;;;5035513;28;20076;-79
2020/12/07 11:38:19;;;;;;;1.95;1.48;;;230.80;1894.40;;;;;;5036893;28;20043;-79
2020/12/07 11:45:45;;;;;;;4.35;1.88;;;230.70;1920.00;;;;;;5040442;28;20053;-78
2020/12/07 11:48:12;;;;;;;4.35;1.60;;;230.70;1894.40;;;;;;5037723;28;20519;-79
2020/12/07 11:50:38;;;;;;;4.20;2.20;;;230.70;1920.00;;;;;;5036305;28;20030;-79
2020/12/07 11:53:04;;;;;;;3.72;2.33;;;230.70;1894.40;;;;;;5035403;28;20335;-79
2020/12/07 11:55:30;;;;;;;4.63;1.80;;;230.70;1894.40;;;;;;5036342;28;20036;-78
2020/12/07 11:57:56;;;;;;;8.55;3.42;;;230.70;1920.00;;;;;;5034975;28;20026;-79
2020/12/07 12:00:23;;;;;;;1.70;1.60;;;230.70;1894.40;;;;;;5034978;28;20323;-78
2020/12/07 12:02:49;;;;;;;5.03;2.00;;;230.80;1894.40;;;;;;5036450;28;20025;-79
2020/12/07 12:05:14;;;;;;;4.72;1.80;;;230.80;1894.40;;;;;;5036159;28;20075;-78
2020/12/07 12:07:40;;;;;;;3.33;2.72;;;230.70;1894.40;;;;;;5035428;28;20049;-79
2020/12/07 12:10:06;;;;;;;3.13;1.73;;;230.70;1894.40;;;;;;5035458;28;20109;-77
2020/12/07 12:12:31;;;;;;;4.07;2.83;;;230.70;1894.40;;;;;;5035360;28;20033;-79
2020/12/07 12:14:57;;;;;;;7.40;1.98;;;230.80;1868.80;;;;;;5031777;28;20405;-79
2020/12/07 12:17:23;;;;;;;6.32;1.50;;;230.80;1868.80;;;;;;5034627;28;20030;-80
2020/12/07 12:19:48;;;;;;;3.03;1.38;;;230.70;1894.40;;;;;;5034880;28;20033;-78
2020/12/07 12:22:14;;;;;;;3.05;1.60;;;230.70;1868.80;;;;;;5035243;28;20145;-78
2020/12/07 12:24:40;;;;;;;1.85;1.73;;;230.70;1868.80;;;;;;5034657;28;20423;-78
2020/12/07 12:27:06;;;;;;;1.77;1.50;;;230.60;1868.80;;;;;;5034775;28;20025;-78
2020/12/07 12:29:31;;;;;;;8.05;2.85;;;230.60;1868.80;;;;;;5034326;28;20050;-77
2020/12/07 12:31:57;;;;;;;44.00;11.55;;;230.60;1843.20;;;;;;5035015;28;20318;-78
2020/12/07 12:34:23;;;;;;;25.77;9.68;;;230.70;1843.20;;;;;;5033469;28;20044;-77
2020/12/07 12:36:49;;;;;;;5.22;2.78;;;230.70;1843.20;;;;;;5033743;28;20042;-77
2020/12/07 12:39:15;;;;;;;3.22;1.92;;;230.70;1843.20;;;;;;5034652;28;20032;-79
2020/12/07 12:41:41;;;;;;;4.90;2.28;;;230.70;1843.20;;;;;;5034930;28;20419;-78
2020/12/07 12:44:08;;;;;;;5.63;1.90;;;230.60;1843.20;;;;;;5033268;28;20331;-77
2020/12/07 12:46:37;;;;;;;2.28;1.88;;;230.70;1843.20;;;;;;5035633;28;20034;-78
2020/12/07 12:49:03;;;;;;;2.08;1.77;;;230.70;1843.20;;;;;;5038864;28;20033;-77
2020/12/07 12:51:29;;;;;;;4.38;1.67;;;230.70;1843.20;;;;;;5038598;28;20017;-76
2020/12/07 12:53:55;;;;;;;2.55;1.83;;;230.70;1843.20;;;;;;5037339;28;20304;-76
2020/12/07 12:56:22;;;;;;;2.63;1.35;;;230.70;1843.20;;;;;;5039602;28;20045;-74